Mc Rae, Arkansas
Current Conditions -  °F | °C
As of 6:56 PM on Monday 26 Jan 2015 (Local Time) from KSRC Reporting Station
Clear Clear  
Wind Chill: 44°   Ceiling: Unl
Heat Index: 47°   Visibility: 10mi
Dew Point: 33°   Wind: 6mph
Humidity: 59%   Direction: 220°SW
Pressure: 29.98"   Gusts: NA
Location:  35.1012°N, 91.8143°W
Report Text: KSRC 270056Z AUTO 22005KT 10SM CLR 08/01 A2998 RMK AO2 SLP158 T00830006 TSNO
Loading
Personal Weather Stations






























Interactive Weather Map New forecast layout! Learn more

10-Day Weather Forecast

Advertisements
Track Severe Weather on mobile